Time;durP1;ratioP1;P1;durP2;ratioP2;P2;SDS_P1;SDS_P2;PMS_P1;PMS_P2;Temp;Humidity;BMP_temperature;BMP_pressure;BME280_temperature;BME280_humidity;BME280_pressure;Samples;Min_cycle;Max_cycle;Signal;HPM_P1;HPM_P2
2022/10/06 00:02:21;;;;;;;14.90;5.87;;;;;;;10.87;98.99;100267.78;4155656;28;23460;-61
2022/10/06 00:04:48;;;;;;;14.53;6.03;;;;;;;10.85;98.88;100264.44;4151322;28;22252;-61
2022/10/06 00:07:15;;;;;;;16.17;6.00;;;;;;;10.88;98.30;100272.13;4160920;28;20482;-62
2022/10/06 00:09:42;;;;;;;13.07;6.70;;;;;;;10.88;99.09;100261.47;4157371;28;20241;-61
2022/10/06 00:12:08;;;;;;;15.07;6.00;;;;;;;10.88;99.22;100264.13;4167772;28;20382;-61
2022/10/06 00:14:35;;;;;;;12.20;5.97;;;;;;;10.85;98.79;100263.59;4159914;28;20246;-62
2022/10/06 00:17:05;;;;;;;13.87;6.47;;;;;;;10.85;98.85;100260.94;4152265;28;20297;-62
2022/10/06 00:19:32;;;;;;;12.60;6.17;;;;;;;10.80;99.68;100260.56;4154355;28;22016;-62
2022/10/06 00:21:58;;;;;;;17.43;6.40;;;;;;;10.78;99.51;100258.06;4158546;28;22133;-65
2022/10/06 00:24:26;;;;;;;13.57;6.43;;;;;;;10.87;99.08;100265.13;4139361;28;20593;-62
2022/10/06 00:26:52;;;;;;;13.27;6.37;;;;;;;10.83;99.53;100260.25;4158161;28;20241;-62
2022/10/06 00:29:18;;;;;;;15.53;6.00;;;;;;;10.80;99.24;100257.91;4151217;28;20337;-61
2022/10/06 00:31:45;;;;;;;11.43;5.90;;;;;;;10.77;99.49;100259.06;4167957;28;20243;-64
2022/10/06 00:34:11;;;;;;;19.13;6.63;;;;;;;10.77;99.39;100259.06;4155379;28;20604;-62
2022/10/06 00:36:38;;;;;;;12.33;6.03;;;;;;;10.77;99.18;100254.56;4148791;28;20300;-60
2022/10/06 00:39:05;;;;;;;9.67;5.57;;;;;;;10.82;98.85;100259.44;4165406;28;20243;-61
2022/10/06 00:41:31;;;;;;;15.73;5.53;;;;;;;10.78;99.01;100263.38;4154021;28;20238;-64
2022/10/06 00:43:58;;;;;;;14.20;6.37;;;;;;;10.75;99.25;100248.53;4144207;28;20249;-64
2022/10/06 00:46:34;;;;;;;9.60;6.03;;;;;;;10.73;99.18;100247.84;4154617;28;20243;-63
2022/10/06 00:49:26;;;;;;;11.83;5.50;;;;;;;10.80;99.73;100261.41;4154099;28;20305;-61
2022/10/06 00:52:08;;;;;;;12.87;5.07;;;;;;;10.83;98.77;100257.59;4149095;28;21192;-63
2022/10/06 00:54:35;;;;;;;11.07;5.37;;;;;;;10.77;98.91;100254.56;4140315;28;25775;-62
2022/10/06 00:57:04;;;;;;;15.27;5.30;;;;;;;10.76;99.34;100257.34;4141953;28;20257;-60
2022/10/06 00:59:31;;;;;;;14.07;4.97;;;;;;;10.86;98.34;100252.78;4145320;28;20445;-64
2022/10/06 01:02:08;;;;;;;11.20;5.20;;;;;;;10.87;98.76;100254.47;4135992;29;20245;-62
2022/10/06 01:04:37;;;;;;;11.63;4.43;;;;;;;10.84;98.56;100257.47;4154467;28;21558;-63
2022/10/06 01:07:04;;;;;;;11.67;5.60;;;;;;;10.81;98.90;100246.25;4153076;28;21570;-62
2022/10/06 01:09:30;;;;;;;12.30;5.13;;;;;;;10.79;99.53;100246.41;4147792;28;20252;-62
2022/10/06 01:12:01;;;;;;;9.17;5.17;;;;;;;10.84;99.98;100244.16;4167973;28;20966;-61
2022/10/06 01:14:28;;;;;;;10.97;4.80;;;;;;;10.86;99.41;100242.13;4149027;28;20242;-59
2022/10/06 01:17:03;;;;;;;10.23;4.83;;;;;;;10.97;99.69;100238.44;4145753;28;20388;-64
2022/10/06 01:19:51;;;;;;;10.50;4.93;;;;;;;10.99;99.20;100239.13;4159867;28;20242;-62
2022/10/06 01:22:27;;;;;;;10.50;4.53;;;;;;;10.97;98.87;100236.59;4164602;28;20724;-62
2022/10/06 01:24:54;;;;;;;10.53;4.93;;;;;;;11.02;99.62;100235.31;4150420;28;25579;-63
2022/10/06 01:27:22;;;;;;;11.87;4.40;;;;;;;10.99;99.68;100241.78;4146357;28;21065;-61
2022/10/06 01:29:51;;;;;;;9.63;4.10;;;;;;;10.97;98.96;100233.94;4142066;28;20230;-61
2022/10/06 01:32:18;;;;;;;9.40;4.87;;;;;;;10.96;99.40;100232.28;4154709;28;21216;-61
2022/10/06 01:34:45;;;;;;;14.47;5.43;;;;;;;11.00;99.00;100227.47;4147062;28;20243;-63
2022/10/06 01:37:11;;;;;;;12.30;5.10;;;;;;;10.91;99.75;100229.25;4159137;28;20409;-63
2022/10/06 01:39:38;;;;;;;8.33;4.83;;;;;;;10.95;99.87;100222.59;4157729;28;20234;-61
2022/10/06 01:42:04;;;;;;;14.30;5.27;;;;;;;11.01;99.90;100233.66;4153806;28;25258;-64
2022/10/06 01:44:31;;;;;;;13.33;5.30;;;;;;;10.94;99.62;100226.25;4166614;28;21251;-60
2022/10/06 01:46:57;;;;;;;13.47;5.10;;;;;;;10.98;100.00;100224.16;4154869;28;20452;-63
2022/10/06 01:49:24;;;;;;;9.27;4.80;;;;;;;11.03;100.00;100226.31;4142791;28;20284;-64
2022/10/06 01:51:50;;;;;;;13.20;5.00;;;;;;;10.98;99.44;100230.31;4173755;28;20297;-61
2022/10/06 01:54:17;;;;;;;8.73;4.80;;;;;;;10.96;99.42;100226.94;4168518;28;20574;-60
2022/10/06 01:56:43;;;;;;;11.30;4.50;;;;;;;10.89;100.00;100227.72;4157388;28;20425;-62
2022/10/06 01:59:10;;;;;;;9.83;4.80;;;;;;;10.89;99.80;100222.41;4169425;28;21781;-63
2022/10/06 02:01:36;;;;;;;8.40;4.97;;;;;;;10.91;100.00;100220.38;4168970;28;20374;-62
2022/10/06 02:04:03;;;;;;;9.33;5.00;;;;;;;10.97;99.92;100223.28;4174298;28;21251;-60
2022/10/06 02:06:30;;;;;;;10.03;4.43;;;;;;;10.97;99.73;100223.28;4142475;28;20919;-62
2022/10/06 02:08:57;;;;;;;15.53;4.93;;;;;;;10.93;100.00;100227.25;4180530;28;20521;-61
2022/10/06 02:11:23;;;;;;;15.63;4.80;;;;;;;10.94;99.51;100223.59;4161200;28;20235;-60
2022/10/06 02:13:49;;;;;;;11.33;4.73;;;;;;;10.97;99.83;100223.28;4163536;28;20253;-60
2022/10/06 02:16:16;;;;;;;18.37;4.83;;;;;;;10.95;99.96;100229.75;4168570;28;21450;-63
2022/10/06 02:18:43;;;;;;;7.17;4.40;;;;;;;10.87;100.00;100227.03;4177719;28;20247;-64
2022/10/06 02:21:15;;;;;;;14.90;5.40;;;;;;;10.89;100.00;100225.88;4172946;28;21791;-62
2022/10/06 02:23:41;;;;;;;10.73;4.97;;;;;;;10.85;100.00;100227.16;4162239;28;24644;-61
2022/10/06 02:26:08;;;;;;;11.43;4.60;;;;;;;10.83;100.00;100238.97;4168246;28;20584;-61
2022/10/06 02:28:34;;;;;;;13.80;5.07;;;;;;;10.79;100.00;100235.75;4163008;28;20346;-61
2022/10/06 02:31:04;;;;;;;12.67;5.00;;;;;;;10.74;100.00;100238.03;4167643;28;23733;-62
2022/10/06 02:33:30;;;;;;;9.27;5.03;;;;;;;10.74;100.00;100233.53;4162509;28;20317;-63
2022/10/06 02:35:57;;;;;;;10.13;4.77;;;;;;;10.69;100.00;100240.31;4167173;28;20237;-61
2022/10/06 02:38:26;;;;;;;11.77;4.93;;;;;;;10.77;100.00;100235.94;4161946;28;20770;-63
2022/10/06 02:40:53;;;;;;;13.40;4.73;;;;;;;10.78;100.00;100240.25;4156572;28;20857;-62
2022/10/06 02:43:20;;;;;;;13.00;5.00;;;;;;;10.69;100.00;100241.16;4178781;28;21776;-62
2022/10/06 02:45:57;;;;;;;7.97;4.90;;;;;;;10.75;100.00;100245.06;4148913;28;20366;-61
2022/10/06 02:48:25;;;;;;;12.13;4.77;;;;;;;10.75;100.00;100245.06;4156662;28;21337;-62
2022/10/06 02:50:57;;;;;;;10.37;5.13;;;;;;;10.64;100.00;100239.94;4154882;28;20421;-60
2022/10/06 02:53:24;;;;;;;9.30;4.80;;;;;;;10.70;100.00;100242.84;4153068;28;20393;-62
2022/10/06 02:56:21;;;;;;;13.20;5.10;;;;;;;10.61;100.00;100238.41;4154549;28;21732;-60
2022/10/06 02:58:49;;;;;;;12.67;4.50;;;;;;;10.64;100.00;100242.59;4155728;28;20251;-63
2022/10/06 03:01:24;;;;;;;8.63;4.53;;;;;;;10.65;100.00;100249.59;4161796;28;20234;-62
2022/10/06 03:03:51;;;;;;;13.80;4.73;;;;;;;10.56;100.00;100246.84;4157771;28;20244;-61
2022/10/06 03:06:20;;;;;;;9.13;5.37;;;;;;;10.55;100.00;100245.16;4166117;28;21888;-63
2022/10/06 03:08:54;;;;;;;11.13;4.70;;;;;;;10.52;100.00;100245.47;4170106;28;20237;-61
2022/10/06 03:11:23;;;;;;;13.43;5.00;;;;;;;10.59;100.00;100258.19;4159451;28;20238;-62
2022/10/06 03:13:50;;;;;;;12.03;4.90;;;;;;;10.62;100.00;100255.22;4151558;28;20283;-63
2022/10/06 03:16:22;;;;;;;10.60;4.67;;;;;;;10.54;100.00;100256.81;4167521;28;20309;-61
2022/10/06 03:18:50;;;;;;;10.03;5.00;;;;;;;10.60;100.00;100257.19;4164045;28;20302;-63
2022/10/06 03:21:18;;;;;;;7.60;5.03;;;;;;;10.53;100.00;100255.09;4158542;28;20415;-64
2022/10/06 03:23:49;;;;;;;10.53;4.87;;;;;;;10.45;100.00;100252.38;4159376;28;21760;-61
2022/10/06 03:26:19;;;;;;;10.77;5.43;;;;;;;10.43;100.00;100251.69;4165283;28;20238;-63
2022/10/06 03:28:45;;;;;;;8.53;5.20;;;;;;;10.34;100.00;100248.06;4159402;28;20405;-60
2022/10/06 03:31:13;;;;;;;9.87;5.00;;;;;;;10.39;100.00;100260.09;4158839;28;22968;-60
2022/10/06 03:33:39;;;;;;;11.20;4.83;;;;;;;10.34;100.00;100260.53;4165364;28;24011;-64
2022/10/06 03:36:09;;;;;;;11.47;5.30;;;;;;;10.24;100.00;100260.56;4142760;28;27077;-62
2022/10/06 03:38:36;;;;;;;13.30;5.00;;;;;;;10.29;100.00;100260.16;4166627;28;20237;-60
2022/10/06 03:41:16;;;;;;;14.57;5.10;;;;;;;10.22;100.00;100253.72;4164712;28;21253;-62
2022/10/06 03:43:44;;;;;;;8.17;4.57;;;;;;;10.30;100.00;100256.50;4153940;28;20373;-63
2022/10/06 03:46:13;;;;;;;9.90;5.07;;;;;;;10.28;100.00;100263.78;4154516;28;20258;-62
2022/10/06 03:48:40;;;;;;;11.30;4.67;;;;;;;10.35;100.00;100272.88;4165085;28;20269;-61
2022/10/06 03:51:10;;;;;;;11.00;4.70;;;;;;;10.37;100.00;100273.53;4159209;28;20247;-61
2022/10/06 03:53:38;;;;;;;11.33;4.33;;;;;;;10.25;100.00;100264.06;4169419;28;20397;-63
2022/10/06 03:56:09;;;;;;;13.53;4.90;;;;;;;10.25;100.00;100269.38;4163522;28;20268;-59
2022/10/06 03:58:37;;;;;;;14.70;5.57;;;;;;;10.19;100.00;100268.16;4165190;28;20651;-62
2022/10/06 04:01:09;;;;;;;11.40;5.13;;;;;;;10.21;100.00;100267.97;4156029;28;20238;-61
2022/10/06 04:03:36;;;;;;;8.17;4.50;;;;;;;10.24;100.00;100278.34;4165564;28;20247;-61
2022/10/06 04:06:05;;;;;;;13.27;4.93;;;;;;;10.20;100.00;100271.63;4166323;28;23386;-62
2022/10/06 04:08:33;;;;;;;10.10;5.20;;;;;;;10.18;100.00;100278.91;4162444;28;20494;-62
2022/10/06 04:11:10;;;;;;;13.50;5.70;;;;;;;10.14;100.00;100273.91;4162327;28;21713;-62
2022/10/06 04:13:37;;;;;;;12.23;5.53;;;;;;;10.12;100.00;100280.34;4164729;28;20364;-62
2022/10/06 04:16:13;;;;;;;11.83;5.73;;;;;;;10.12;100.00;100281.19;4159132;28;20236;-61
2022/10/06 04:18:41;;;;;;;11.73;5.57;;;;;;;10.07;100.00;100283.44;4157520;28;21490;-62
2022/10/06 04:21:08;;;;;;;14.47;5.10;;;;;;;10.19;100.00;100286.75;4165291;28;20226;-63
2022/10/06 04:23:37;;;;;;;17.17;5.20;;;;;;;10.12;100.00;100286.50;4157383;28;20375;-62
2022/10/06 04:26:08;;;;;;;10.63;5.40;;;;;;;10.13;100.00;100288.16;4169806;28;20574;-60
2022/10/06 04:28:39;;;;;;;8.97;5.43;;;;;;;10.14;100.00;100284.53;4160066;28;20243;-62
2022/10/06 04:31:14;;;;;;;10.73;5.17;;;;;;;10.12;100.00;100281.19;4173384;28;20238;-61
2022/10/06 04:33:42;;;;;;;11.30;5.83;;;;;;;10.12;100.00;100291.00;4165925;28;20325;-62
2022/10/06 04:36:13;;;;;;;10.60;5.30;;;;;;;10.14;100.00;100294.34;4170747;28;20247;-62
2022/10/06 04:38:39;;;;;;;10.83;5.10;;;;;;;10.21;100.00;100294.56;4157411;28;20455;-63
2022/10/06 04:41:09;;;;;;;11.00;5.47;;;;;;;10.18;100.00;100303.69;4163776;28;20746;-61
2022/10/06 04:43:35;;;;;;;9.07;5.17;;;;;;;10.24;100.00;100304.94;4151783;28;20427;-60
2022/10/06 04:46:04;;;;;;;11.10;5.43;;;;;;;10.17;100.00;100299.38;4170982;28;22810;-62
2022/10/06 04:48:51;;;;;;;14.60;5.70;;;;;;;10.21;100.00;100311.41;4165925;28;20241;-61
2022/10/06 04:51:18;;;;;;;12.30;5.03;;;;;;;10.20;100.00;100314.19;4163390;28;20251;-62
2022/10/06 04:53:45;;;;;;;11.37;4.77;;;;;;;10.19;100.00;100309.88;4164637;28;20612;-62
2022/10/06 04:56:19;;;;;;;10.33;5.07;;;;;;;10.26;100.00;100313.63;4154022;28;20231;-63
2022/10/06 04:58:47;;;;;;;15.23;5.83;;;;;;;10.23;100.00;100319.22;4154918;28;20415;-62
2022/10/06 05:01:24;;;;;;;17.73;5.73;;;;;;;10.18;100.00;100316.97;4198077;28;21686;-60
2022/10/06 05:03:54;;;;;;;15.67;5.73;;;;;;;10.23;100.00;100324.53;4173149;28;20248;-61
2022/10/06 05:06:26;;;;;;;14.17;6.37;;;;;;;10.22;100.00;100329.00;4187408;28;21079;-65
2022/10/06 05:09:01;;;;;;;12.33;5.53;;;;;;;10.26;100.00;100335.72;4181616;28;22271;-62
2022/10/06 05:11:30;;;;;;;12.07;5.77;;;;;;;10.31;100.00;100335.31;4170890;28;20243;-64
2022/10/06 05:13:58;;;;;;;12.53;5.37;;;;;;;10.38;100.00;100349.72;4163255;28;21898;-63
2022/10/06 05:16:27;;;;;;;15.07;5.37;;;;;;;10.47;100.00;100350.66;4164659;28;21431;-62
2022/10/06 05:18:54;;;;;;;11.03;5.30;;;;;;;10.42;100.00;100345.78;4171931;28;20354;-65
2022/10/06 05:21:23;;;;;;;9.17;5.33;;;;;;;10.46;100.00;100349.81;4170604;28;20239;-65
2022/10/06 05:23:49;;;;;;;14.50;5.73;;;;;;;10.42;100.00;100351.09;4146600;28;20246;-63
2022/10/06 05:26:18;;;;;;;10.10;5.67;;;;;;;10.38;100.00;100348.88;4169549;28;20327;-64
2022/10/06 05:28:45;;;;;;;12.73;6.17;;;;;;;10.37;100.00;100348.03;4175905;28;20307;-63
2022/10/06 05:31:13;;;;;;;17.10;5.70;;;;;;;10.41;100.00;100352.06;4165171;28;20277;-63
2022/10/06 05:33:40;;;;;;;11.67;5.60;;;;;;;10.48;100.00;100345.19;4158781;28;20238;-66
2022/10/06 05:36:10;;;;;;;9.77;5.43;;;;;;;10.47;100.00;100343.50;4138884;28;20238;-64
2022/10/06 05:38:37;;;;;;;10.20;5.73;;;;;;;10.53;100.00;100350.06;4164691;28;20721;-63
2022/10/06 05:41:05;;;;;;;13.50;5.70;;;;;;;10.55;100.00;100358.75;4167954;28;20333;-75
2022/10/06 05:43:32;;;;;;;13.00;6.00;;;;;;;10.58;100.00;100361.09;4166197;28;21682;-69
2022/10/06 05:46:01;;;;;;;11.53;5.77;;;;;;;10.64;100.00;100367.66;4163493;28;21707;-63
2022/10/06 05:48:29;;;;;;;13.50;5.80;;;;;;;10.71;100.00;100376.75;4173511;28;21809;-51
2022/10/06 05:51:03;;;;;;;12.20;6.50;;;;;;;10.75;100.00;100373.63;4162641;28;20235;-63
2022/10/06 05:53:32;;;;;;;12.53;5.43;;;;;;;10.80;100.00;100383.84;4147712;28;20269;-69
2022/10/06 05:56:10;;;;;;;10.60;5.60;;;;;;;10.86;100.00;100385.91;4160968;28;23159;-64
2022/10/06 05:58:38;;;;;;;11.57;5.57;;;;;;;10.87;100.00;100398.25;4155068;28;20395;-68
2022/10/06 06:01:17;;;;;;;8.53;5.17;;;;;;;10.93;100.00;100402.97;4160850;28;20276;-63
2022/10/06 06:03:54;;;;;;;12.50;5.93;;;;;;;10.94;100.00;100404.66;4175949;28;20250;-63
2022/10/06 06:06:26;;;;;;;9.80;5.27;;;;;;;11.02;100.00;100405.72;4161785;28;20234;-66
2022/10/06 06:08:54;;;;;;;13.47;5.10;;;;;;;11.16;100.00;100406.06;4168502;28;20246;-67
2022/10/06 06:11:25;;;;;;;11.47;5.40;;;;;;;11.22;100.00;100406.47;4173752;28;20253;-53
2022/10/06 06:13:52;;;;;;;12.70;5.10;;;;;;;11.41;100.00;100416.97;4161421;28;20762;-65
2022/10/06 06:16:19;;;;;;;11.60;5.00;;;;;;;11.45;100.00;100423.69;4198709;28;20437;-64
2022/10/06 06:18:45;;;;;;;8.80;4.63;;;;;;;11.53;100.00;100425.59;4161810;28;20822;-63
2022/10/06 06:21:12;;;;;;;11.90;5.47;;;;;;;11.67;100.00;100424.22;4180853;28;20274;-63
2022/10/06 06:23:45;;;;;;;9.37;5.30;;;;;;;11.71;100.00;100439.78;4185805;28;20239;-63
2022/10/06 06:26:16;;;;;;;10.37;5.13;;;;;;;11.80;100.00;100438.03;4169369;28;21792;-64
2022/10/06 06:28:47;;;;;;;10.47;4.87;;;;;;;11.93;100.00;100451.00;4162060;28;21276;-62
2022/10/06 06:31:21;;;;;;;9.10;4.60;;;;;;;12.06;100.00;100455.91;4170418;28;20374;-62
2022/10/06 06:33:53;;;;;;;13.40;5.80;;;;;;;12.18;100.00;100462.72;4159994;28;20327;-63
2022/10/06 06:36:25;;;;;;;10.07;4.63;;;;;;;12.35;100.00;100459.16;4187657;28;20271;-62
2022/10/06 06:38:53;;;;;;;12.50;4.97;;;;;;;12.56;99.95;100466.81;4170191;28;20312;-62
2022/10/06 06:41:21;;;;;;;11.73;4.83;;;;;;;12.58;100.00;100472.84;4164625;28;20248;-64
2022/10/06 06:43:48;;;;;;;8.50;4.40;;;;;;;12.59;99.90;100473.66;4155679;28;20583;-65
2022/10/06 06:46:17;;;;;;;10.53;4.80;;;;;;;12.58;99.34;100480.84;4168905;28;20307;-65
2022/10/06 06:48:44;;;;;;;19.67;4.30;;;;;;;12.66;99.65;100483.53;4163167;28;20242;-52
2022/10/06 06:51:10;;;;;;;11.67;4.23;;;;;;;12.78;99.37;100485.94;4157355;28;20607;-61
2022/10/06 06:53:40;;;;;;;11.43;4.50;;;;;;;12.88;99.90;100497.38;4161223;28;20234;-49
2022/10/06 06:56:08;;;;;;;8.33;4.23;;;;;;;13.01;98.81;100499.59;4162884;28;21604;-67
2022/10/06 06:58:34;;;;;;;11.47;4.40;;;;;;;12.86;98.59;100496.69;4147118;28;20368;-68
2022/10/06 07:01:12;;;;;;;11.10;4.50;;;;;;;12.77;99.16;100501.16;4157268;28;20241;-69
2022/10/06 07:03:44;;;;;;;12.00;4.60;;;;;;;12.83;99.28;100502.34;4162301;28;21074;-66
2022/10/06 07:06:25;;;;;;;12.23;4.60;;;;;;;12.82;99.25;100511.34;4170627;28;20240;-67
2022/10/06 07:08:54;;;;;;;9.63;4.90;;;;;;;12.89;99.51;100517.75;4157230;28;20322;-65
2022/10/06 07:11:23;;;;;;;12.80;4.73;;;;;;;12.94;99.44;100518.09;4166186;28;20235;-66
2022/10/06 07:13:52;;;;;;;13.27;4.43;;;;;;;12.90;99.46;100519.44;4166266;28;20242;-68
2022/10/06 07:27:23;;;;;;;8.17;4.57;;;;;;;13.19;98.81;100528.94;4163401;28;22122;-64
2022/10/06 07:29:53;;;;;;;9.53;4.33;;;;;;;13.30;98.25;100523.34;4161060;28;20323;-66
2022/10/06 07:32:22;;;;;;;10.13;4.60;;;;;;;13.29;97.51;100522.47;4166432;28;20257;-64
2022/10/06 07:34:49;;;;;;;13.17;5.23;;;;;;;13.29;97.79;100530.50;4147559;28;20231;-64
2022/10/06 07:37:18;;;;;;;14.00;5.33;;;;;;;13.21;98.30;100533.13;4148968;28;20309;-66
2022/10/06 07:39:45;;;;;;;12.47;5.57;;;;;;;13.19;99.03;100536.94;4167316;28;20298;-65
2022/10/06 07:42:13;;;;;;;13.60;5.67;;;;;;;13.23;99.09;100544.47;4163314;28;20248;-68
2022/10/06 07:44:41;;;;;;;11.07;4.97;;;;;;;13.28;99.03;100541.38;4157619;28;20380;-66
2022/10/06 07:47:08;;;;;;;10.70;5.07;;;;;;;13.30;98.89;100540.22;4165166;28;20293;-66
2022/10/06 07:49:34;;;;;;;10.83;4.80;;;;;;;13.27;99.02;100534.28;4170982;28;20408;-66
2022/10/06 07:52:04;;;;;;;9.67;4.67;;;;;;;13.30;98.80;100539.38;4165008;28;22981;-65
2022/10/06 07:54:30;;;;;;;12.70;4.93;;;;;;;13.45;98.25;100537.75;4193955;28;20247;-66
2022/10/06 07:56:57;;;;;;;14.00;4.80;;;;;;;13.52;98.50;100537.94;4211536;28;20242;-64
2022/10/06 07:59:23;;;;;;;12.00;4.87;;;;;;;13.73;97.91;100545.53;4205923;28;20911;-65
2022/10/06 08:01:51;;;;;;;13.20;4.73;;;;;;;13.90;96.47;100539.22;4160592;28;20239;-64
2022/10/06 08:04:18;;;;;;;14.90;4.73;;;;;;;13.96;96.08;100550.28;4182483;28;20241;-67
2022/10/06 08:06:46;;;;;;;7.93;4.10;;;;;;;13.91;96.18;100553.44;4179931;28;20236;-64
2022/10/06 08:09:13;;;;;;;9.20;4.70;;;;;;;13.93;96.62;100552.28;4218789;28;23552;-65
2022/10/06 08:11:39;;;;;;;9.67;5.00;;;;;;;14.08;96.23;100560.50;4170949;28;21295;-66
2022/10/06 08:14:06;;;;;;;13.33;5.70;;;;;;;14.35;94.67;100564.72;4191365;28;20530;-64
2022/10/06 08:16:32;;;;;;;13.53;6.03;;;;;;;14.64;92.82;100568.75;4227359;28;20242;-66
2022/10/06 08:18:59;;;;;;;16.10;6.27;;;;;;;15.22;91.58;100565.97;4194632;28;20302;-64
2022/10/06 08:21:28;;;;;;;14.77;6.73;;;;;;;15.88;87.00;100570.09;4239946;28;20230;-64
2022/10/06 08:23:57;;;;;;;11.03;4.73;;;;;;;16.79;82.20;100576.50;4186947;28;20424;-63
2022/10/06 08:26:26;;;;;;;6.90;4.50;;;;;;;17.37;77.25;100587.53;4176023;28;20240;-66
2022/10/06 08:28:56;;;;;;;10.93;4.67;;;;;;;17.43;75.82;100585.94;4208257;29;20233;-64
2022/10/06 08:31:23;;;;;;;12.27;4.90;;;;;;;18.20;73.33;100588.13;4195625;28;20238;-63
2022/10/06 08:33:54;;;;;;;8.87;4.30;;;;;;;21.55;59.25;100613.63;4200991;28;20243;-60
2022/10/06 08:36:25;;;;;;;11.60;3.83;;;;;;;21.95;55.21;100617.00;4188535;28;20327;-65
2022/10/06 08:38:57;;;;;;;9.50;3.80;;;;;;;22.11;54.30;100621.09;4201291;28;20250;-65
2022/10/06 08:41:39;;;;;;;9.87;3.77;;;;;;;20.89;58.23;100609.97;4205855;28;20702;-65
2022/10/06 08:44:18;;;;;;;11.00;4.00;;;;;;;19.43;63.49;100596.81;4206501;28;22731;-62
2022/10/06 08:46:50;;;;;;;9.30;4.07;;;;;;;18.75;67.97;100585.72;4183723;29;20238;-62
2022/10/06 08:49:19;;;;;;;9.10;4.10;;;;;;;18.04;71.25;100589.19;4166540;28;21796;-63
2022/10/06 08:51:52;;;;;;;10.03;4.27;;;;;;;18.16;72.09;100602.19;4190853;29;20237;-63
2022/10/06 08:54:34;;;;;;;7.90;3.90;;;;;;;18.11;72.92;100594.66;4168930;28;20239;-65
2022/10/06 08:57:20;;;;;;;7.87;3.70;;;;;;;18.01;73.64;100608.44;4161223;29;20684;-64
2022/10/06 08:59:48;;;;;;;7.90;3.87;;;;;;;18.13;73.63;100608.78;4193251;29;20345;-66
2022/10/06 09:02:25;;;;;;;9.50;4.17;;;;;;;17.83;74.78;100608.00;4213776;28;20254;-61
2022/10/06 09:04:52;;;;;;;7.07;4.50;;;;;;;17.64;74.80;100614.78;4176845;28;20241;-65
2022/10/06 09:07:27;;;;;;;8.43;4.10;;;;;;;17.52;76.83;100611.72;4173987;28;20277;-64
2022/10/06 09:10:06;;;;;;;8.53;3.90;;;;;;;17.36;77.98;100625.34;4179868;28;20411;-64
2022/10/06 09:12:47;;;;;;;10.73;4.73;;;;;;;17.05;79.61;100637.94;4164011;28;20230;-64
2022/10/06 09:15:28;;;;;;;12.07;4.30;;;;;;;16.96;80.71;100632.81;4182392;28;20240;-64
2022/10/06 09:18:01;;;;;;;8.50;3.77;;;;;;;16.82;82.45;100637.97;4216419;28;20240;-66
2022/10/06 09:20:36;;;;;;;11.87;5.10;;;;;;;16.86;82.06;100646.50;4171993;28;22187;-64
2022/10/06 09:23:07;;;;;;;9.60;4.00;;;;;;;16.79;82.23;100632.13;4189254;28;20365;-63
2022/10/06 09:25:36;;;;;;;11.87;4.60;;;;;;;16.97;81.00;100642.53;4182934;28;21645;-66
2022/10/06 09:28:14;;;;;;;9.67;4.20;;;;;;;17.28;79.94;100643.25;4239882;28;20425;-65
2022/10/06 09:30:42;;;;;;;9.10;4.30;;;;;;;17.25;79.74;100640.09;4187754;28;20238;-66
2022/10/06 09:33:17;;;;;;;7.37;4.10;;;;;;;17.64;78.45;100649.75;4242061;29;20229;-67
2022/10/06 09:36:07;;;;;;;10.43;3.97;;;;;;;17.88;78.19;100654.03;4218813;28;20237;-64
2022/10/06 09:38:46;;;;;;;7.07;4.00;;;;;;;17.99;77.55;100650.88;4178512;28;21589;-65
2022/10/06 09:41:14;;;;;;;8.53;3.87;;;;;;;17.99;77.81;100661.66;4232482;28;22159;-64
2022/10/06 09:43:51;;;;;;;14.97;4.10;;;;;;;18.07;77.91;100658.00;4202846;28;20241;-66
2022/10/06 09:46:40;;;;;;;10.30;3.50;;;;;;;18.12;77.38;100661.81;4197910;28;21184;-67
2022/10/06 09:49:14;;;;;;;12.57;3.30;;;;;;;18.30;75.88;100668.63;4220418;28;21954;-69
2022/10/06 09:52:17;;;;;;;5.37;3.37;;;;;;;18.37;74.86;100674.94;4166839;28;20231;-65
2022/10/06 09:54:44;;;;;;;8.60;3.17;;;;;;;18.35;74.73;100672.44;4187736;28;21484;-65
2022/10/06 09:57:15;;;;;;;12.17;3.33;;;;;;;18.17;76.11;100682.81;4174101;28;20236;-69
2022/10/06 09:59:46;;;;;;;8.10;3.30;;;;;;;17.82;76.73;100676.34;4196437;28;20399;-62
2022/10/06 10:02:35;;;;;;;9.03;3.30;;;;;;;17.96;76.43;100688.09;4221915;28;20235;-67
2022/10/06 10:05:16;;;;;;;6.97;3.00;;;;;;;18.00;76.68;100684.84;4169012;29;20244;-69
2022/10/06 10:07:46;;;;;;;5.57;3.20;;;;;;;18.19;75.80;100685.28;4171653;29;20237;-68
2022/10/06 10:10:18;;;;;;;10.97;3.83;;;;;;;18.04;75.71;100691.53;4191984;28;20301;-66
2022/10/06 10:13:23;;;;;;;8.80;3.30;;;;;;;18.26;76.80;100696.97;4182252;28;20313;-52
2022/10/06 10:15:53;;;;;;;5.03;3.03;;;;;;;18.68;74.27;100684.59;4199210;29;20257;-71
2022/10/06 10:18:25;;;;;;;5.03;3.40;;;;;;;18.54;72.81;100689.84;4241853;28;20273;-68
2022/10/06 10:20:59;;;;;;;8.27;3.20;;;;;;;18.67;73.70;100688.31;4177506;28;20325;-67
2022/10/06 10:23:32;;;;;;;5.50;3.07;;;;;;;18.66;74.19;100690.19;4208432;28;20280;-70
2022/10/06 10:26:35;;;;;;;5.70;2.80;;;;;;;18.78;73.44;100693.25;4166171;29;20244;-66
2022/10/06 10:29:29;;;;;;;10.87;4.23;;;;;;;18.64;73.64;100707.59;4184363;28;20577;-70
2022/10/06 10:32:10;;;;;;;6.47;3.30;;;;;;;18.25;76.27;100700.72;4148997;29;20569;-71
2022/10/06 10:34:48;;;;;;;10.80;3.97;;;;;;;18.24;76.48;100707.09;4130903;29;20287;-69
2022/10/06 10:37:39;;;;;;;11.13;3.53;;;;;;;18.13;76.71;100698.50;4166394;28;21290;-67
2022/10/06 10:40:16;;;;;;;7.13;3.43;;;;;;;17.97;77.77;100698.69;4161657;29;20404;-69
2022/10/06 10:42:54;;;;;;;6.50;3.03;;;;;;;17.75;78.22;100700.44;4156828;28;20240;-64
2022/10/06 10:45:32;;;;;;;12.87;3.50;;;;;;;17.67;79.47;100717.50;4147344;28;20399;-66
2022/10/06 10:48:00;;;;;;;9.13;2.90;;;;;;;17.61;80.08;100715.56;4150349;28;21529;-67
2022/10/06 10:50:41;;;;;;;8.83;3.13;;;;;;;17.60;79.09;100713.88;4124720;28;20681;-66
2022/10/06 10:53:13;;;;;;;6.40;2.80;;;;;;;17.48;80.65;100712.66;4150209;29;20962;-65
2022/10/06 10:55:47;;;;;;;5.93;2.70;;;;;;;17.47;81.23;100721.75;4157712;28;20236;-64
2022/10/06 10:58:17;;;;;;;5.67;2.73;;;;;;;17.45;81.82;100715.72;4141508;28;20243;-66
2022/10/06 11:00:48;;;;;;;5.70;3.00;;;;;;;17.48;81.95;100723.41;4157332;28;21764;-63
2022/10/06 11:03:14;;;;;;;8.40;3.07;;;;;;;17.49;82.60;100717.03;4171585;28;21080;-66
2022/10/06 11:05:54;;;;;;;10.00;3.23;;;;;;;17.46;83.16;100726.28;4152928;28;20309;-70
2022/10/06 11:08:39;;;;;;;10.13;3.37;;;;;;;17.55;82.47;100718.97;4164209;28;22287;-68
2022/10/06 11:11:48;;;;;;;8.47;3.03;;;;;;;17.64;82.65;100715.19;4188907;28;20234;-66
2022/10/06 11:14:25;;;;;;;6.90;3.53;;;;;;;17.73;82.13;100716.78;4190171;28;20247;-73
2022/10/06 11:17:05;;;;;;;9.60;3.33;;;;;;;17.84;81.69;100725.44;4200713;28;21732;-67
2022/10/06 11:19:57;;;;;;;8.97;3.60;;;;;;;17.82;82.13;100724.81;4189063;28;20619;-72
2022/10/06 11:22:43;;;;;;;7.50;3.27;;;;;;;17.87;82.30;100725.91;4210910;28;21099;-69
2022/10/06 11:25:21;;;;;;;7.60;3.00;;;;;;;17.87;79.72;100733.97;4193533;28;20243;-67
2022/10/06 11:27:58;;;;;;;5.43;2.53;;;;;;;17.83;79.23;100721.91;4167911;28;21742;-70
2022/10/06 11:30:25;;;;;;;6.97;2.77;;;;;;;18.00;78.92;100725.25;4178066;28;20296;-68
2022/10/06 11:33:01;;;;;;;6.37;2.63;;;;;;;18.09;76.34;100748.34;4168328;28;20285;-68
2022/10/06 11:35:35;;;;;;;5.93;2.70;;;;;;;18.10;77.86;100739.28;4173484;28;20231;-67
2022/10/06 11:38:09;;;;;;;7.03;2.43;;;;;;;18.22;76.75;100746.88;4160139;28;20898;-66
2022/10/06 11:40:41;;;;;;;5.57;3.00;;;;;;;18.37;76.60;100755.78;4142341;29;20434;-66
2022/10/06 11:43:15;;;;;;;7.27;2.60;;;;;;;18.06;76.11;100756.81;4171980;28;20616;-69
2022/10/06 11:46:04;;;;;;;7.80;3.00;;;;;;;17.89;76.85;100766.13;4150935;28;20654;-68
2022/10/06 11:48:31;;;;;;;4.10;2.83;;;;;;;17.72;78.84;100751.94;4161904;28;20317;-66